sensor_id;sensor_type;location;lat;lon;timestamp;pressure;altitude;pressure_sealevel;temperature;humidity
24746;BME280;12845;52.042;6.838;2023-03-20T00:01:48;-18261.41;;;8.67;100.00
24746;BME280;12845;52.042;6.838;2023-03-20T00:04:13;-18261.81;;;8.68;100.00
24746;BME280;12845;52.042;6.838;2023-03-20T00:06:39;-18262.38;;;8.70;100.00
24746;BME280;12845;52.042;6.838;2023-03-20T00:09:04;-18263.75;;;8.75;100.00
24746;BME280;12845;52.042;6.838;2023-03-20T00:11:31;-18262.50;;;8.71;100.00
24746;BME280;12845;52.042;6.838;2023-03-20T00:13:59;-18260.72;;;8.64;100.00
24746;BME280;12845;52.042;6.838;2023-03-20T00:16:30;-18260.72;;;8.64;100.00
24746;BME280;12845;52.042;6.838;2023-03-20T00:18:56;-18260.72;;;8.64;100.00
24746;BME280;12845;52.042;6.838;2023-03-20T00:21:22;-18260.44;;;8.63;100.00
24746;BME280;12845;52.042;6.838;2023-03-20T00:23:48;-18259.63;;;8.60;100.00
24746;BME280;12845;52.042;6.838;2023-03-20T00:26:15;-18260.44;;;8.63;100.00
24746;BME280;12845;52.042;6.838;2023-03-20T00:28:46;-18260.56;;;8.64;100.00
24746;BME280;12845;52.042;6.838;2023-03-20T00:31:23;-18260.16;;;8.62;100.00
24746;BME280;12845;52.042;6.838;2023-03-20T00:33:50;-18261.53;;;8.67;100.00
24746;BME280;12845;52.042;6.838;2023-03-20T00:36:16;-18261.81;;;8.68;100.00
24746;BME280;12845;52.042;6.838;2023-03-20T00:38:41;-18262.38;;;8.70;100.00
24746;BME280;12845;52.042;6.838;2023-03-20T00:41:25;-18260.56;;;8.64;100.00
24746;BME280;12845;52.042;6.838;2023-03-20T00:43:54;-18260.72;;;8.64;100.00
24746;BME280;12845;52.042;6.838;2023-03-20T00:46:22;-18259.47;;;8.59;100.00
24746;BME280;12845;52.042;6.838;2023-03-20T00:48:48;-18261.00;;;8.65;100.00
24746;BME280;12845;52.042;6.838;2023-03-20T00:51:14;-18261.28;;;8.66;100.00
24746;BME280;12845;52.042;6.838;2023-03-20T00:53:40;-18262.63;;;8.71;100.00
24746;BME280;12845;52.042;6.838;2023-03-20T00:56:06;-18261.28;;;8.66;100.00
24746;BME280;12845;52.042;6.838;2023-03-20T00:58:43;-18260.56;;;8.64;100.00
24746;BME280;12845;52.042;6.838;2023-03-20T01:01:08;-18259.88;;;8.61;100.00
24746;BME280;12845;52.042;6.838;2023-03-20T01:03:34;-18260.16;;;8.62;100.00
24746;BME280;12845;52.042;6.838;2023-03-20T01:05:59;-18260.16;;;8.62;100.00
24746;BME280;12845;52.042;6.838;2023-03-20T01:08:25;-18259.63;;;8.60;100.00
24746;BME280;12845;52.042;6.838;2023-03-20T01:10:55;-18259.63;;;8.60;100.00
24746;BME280;12845;52.042;6.838;2023-03-20T01:13:27;-18260.31;;;8.63;100.00
24746;BME280;12845;52.042;6.838;2023-03-20T01:15:54;-18259.63;;;8.60;100.00
24746;BME280;12845;52.042;6.838;2023-03-20T01:18:21;-18260.31;;;8.63;100.00
24746;BME280;12845;52.042;6.838;2023-03-20T01:20:48;-18259.75;;;8.61;100.00
24746;BME280;12845;52.042;6.838;2023-03-20T01:23:14;-18259.06;;;8.58;100.00
24746;BME280;12845;52.042;6.838;2023-03-20T01:25:40;-18259.06;;;8.58;100.00
24746;BME280;12845;52.042;6.838;2023-03-20T01:28:17;-18258.50;;;8.56;100.00
24746;BME280;12845;52.042;6.838;2023-03-20T01:30:44;-18259.63;;;8.60;100.00
24746;BME280;12845;52.042;6.838;2023-03-20T01:33:18;-18260.44;;;8.63;100.00
24746;BME280;12845;52.042;6.838;2023-03-20T01:35:44;-18258.66;;;8.56;100.00
24746;BME280;12845;52.042;6.838;2023-03-20T01:38:25;-18256.72;;;8.49;100.00
24746;BME280;12845;52.042;6.838;2023-03-20T01:40:58;-18256.03;;;8.47;100.00
24746;BME280;12845;52.042;6.838;2023-03-20T01:43:27;-18255.91;;;8.46;100.00
24746;BME280;12845;52.042;6.838;2023-03-20T01:51:14;-18257.41;;;8.52;100.00
24746;BME280;12845;52.042;6.838;2023-03-20T01:53:39;-18255.63;;;8.45;100.00
24746;BME280;12845;52.042;6.838;2023-03-20T01:56:05;-18255.47;;;8.45;100.00
24746;BME280;12845;52.042;6.838;2023-03-20T01:58:35;-18256.03;;;8.47;100.00
24746;BME280;12845;52.042;6.838;2023-03-20T02:01:03;-18255.91;;;8.46;100.00
24746;BME280;12845;52.042;6.838;2023-03-20T02:03:30;-18255.47;;;8.45;100.00
24746;BME280;12845;52.042;6.838;2023-03-20T02:05:57;-18257.69;;;8.53;100.00
24746;BME280;12845;52.042;6.838;2023-03-20T02:08:28;-18257.56;;;8.52;100.00
24746;BME280;12845;52.042;6.838;2023-03-20T02:10:56;-18256.44;;;8.48;100.00
24746;BME280;12845;52.042;6.838;2023-03-20T02:13:28;-18256.88;;;8.50;100.00
24746;BME280;12845;52.042;6.838;2023-03-20T02:16:02;-18255.22;;;8.44;100.00
24746;BME280;12845;52.042;6.838;2023-03-20T02:18:28;-18255.63;;;8.45;100.00
24746;BME280;12845;52.042;6.838;2023-03-20T02:44:12;-18252.03;;;8.32;100.00
24746;BME280;12845;52.042;6.838;2023-03-20T02:55:19;-18247.22;;;8.14;100.00
24746;BME280;12845;52.042;6.838;2023-03-20T02:58:13;-18247.50;;;8.15;100.00
24746;BME280;12845;52.042;6.838;2023-03-20T03:00:49;-18247.91;;;8.17;100.00
24746;BME280;12845;52.042;6.838;2023-03-20T03:03:19;-18248.47;;;8.19;100.00
24746;BME280;12845;52.042;6.838;2023-03-20T03:05:52;-18248.72;;;8.20;100.00
24746;BME280;12845;52.042;6.838;2023-03-20T03:08:20;-18249.28;;;8.22;100.00
24746;BME280;12845;52.042;6.838;2023-03-20T03:10:58;-18248.31;;;8.18;100.00
24746;BME280;12845;52.042;6.838;2023-03-20T03:13:28;-18249.16;;;8.21;100.00
24746;BME280;12845;52.042;6.838;2023-03-20T03:15:59;-18248.19;;;8.18;100.00
24746;BME280;12845;52.042;6.838;2023-03-20T03:18:29;-18247.22;;;8.14;100.00
24746;BME280;12845;52.042;6.838;2023-03-20T03:20:58;-18247.22;;;8.14;100.00
24746;BME280;12845;52.042;6.838;2023-03-20T03:23:28;-18247.91;;;8.17;100.00
24746;BME280;12845;52.042;6.838;2023-03-20T03:25:55;-18247.34;;;8.14;100.00
24746;BME280;12845;52.042;6.838;2023-03-20T03:28:31;-18248.47;;;8.19;100.00
24746;BME280;12845;52.042;6.838;2023-03-20T03:31:03;-18245.16;;;8.06;100.00
24746;BME280;12845;52.042;6.838;2023-03-20T03:33:31;-18244.47;;;8.04;100.00
24746;BME280;12845;52.042;6.838;2023-03-20T03:41:24;-18245.16;;;8.06;100.00
24746;BME280;12845;52.042;6.838;2023-03-20T03:49:03;-18242.00;;;7.95;100.00
24746;BME280;12845;52.042;6.838;2023-03-20T03:51:32;-18242.81;;;7.98;100.00
24746;BME280;12845;52.042;6.838;2023-03-20T03:54:10;-18243.09;;;7.99;100.00
24746;BME280;12845;52.042;6.838;2023-03-20T03:56:40;-18243.63;;;8.01;100.00
24746;BME280;12845;52.042;6.838;2023-03-20T03:59:32;-18244.06;;;8.02;100.00
24746;BME280;12845;52.042;6.838;2023-03-20T04:02:00;-18242.94;;;7.98;100.00
24746;BME280;12845;52.042;6.838;2023-03-20T04:04:29;-18244.19;;;8.03;100.00
24746;BME280;12845;52.042;6.838;2023-03-20T04:06:55;-18241.44;;;7.93;100.00
24746;BME280;12845;52.042;6.838;2023-03-20T04:09:21;-18241.72;;;7.94;100.00
24746;BME280;12845;52.042;6.838;2023-03-20T04:11:49;-18241.72;;;7.94;100.00
24746;BME280;12845;52.042;6.838;2023-03-20T04:14:15;-18240.06;;;7.87;100.00
24746;BME280;12845;52.042;6.838;2023-03-20T04:16:40;-18239.91;;;7.87;100.00
24746;BME280;12845;52.042;6.838;2023-03-20T04:19:06;-18239.91;;;7.87;100.00
24746;BME280;12845;52.042;6.838;2023-03-20T04:21:31;-18240.47;;;7.89;100.00
24746;BME280;12845;52.042;6.838;2023-03-20T04:23:57;-18241.44;;;7.93;100.00
24746;BME280;12845;52.042;6.838;2023-03-20T04:26:22;-18242.00;;;7.95;100.00
24746;BME280;12845;52.042;6.838;2023-03-20T04:28:48;-18241.56;;;7.93;100.00
24746;BME280;12845;52.042;6.838;2023-03-20T04:31:14;-18239.66;;;7.86;100.00
24746;BME280;12845;52.042;6.838;2023-03-20T04:33:39;-18240.34;;;7.88;100.00
24746;BME280;12845;52.042;6.838;2023-03-20T04:36:05;-18241.44;;;7.93;100.00
24746;BME280;12845;52.042;6.838;2023-03-20T04:38:30;-18241.56;;;7.93;100.00
24746;BME280;12845;52.042;6.838;2023-03-20T04:40:56;-18242.81;;;7.98;100.00
24746;BME280;12845;52.042;6.838;2023-03-20T04:43:21;-18244.47;;;8.04;100.00
24746;BME280;12845;52.042;6.838;2023-03-20T04:45:47;-18244.59;;;8.04;100.00
24746;BME280;12845;52.042;6.838;2023-03-20T04:48:12;-18244.31;;;8.03;100.00
24746;BME280;12845;52.042;6.838;2023-03-20T04:50:37;-18245.56;;;8.08;100.00
24746;BME280;12845;52.042;6.838;2023-03-20T04:53:03;-18243.22;;;7.99;100.00
24746;BME280;12845;52.042;6.838;2023-03-20T04:55:28;-18243.38;;;8.00;100.00
24746;BME280;12845;52.042;6.838;2023-03-20T04:57:54;-18243.09;;;7.99;100.00
24746;BME280;12845;52.042;6.838;2023-03-20T05:00:20;-18243.38;;;8.00;100.00
24746;BME280;12845;52.042;6.838;2023-03-20T05:02:45;-18241.56;;;7.93;100.00
24746;BME280;12845;52.042;6.838;2023-03-20T05:05:11;-18240.88;;;7.90;100.00
24746;BME280;12845;52.042;6.838;2023-03-20T05:07:36;-18241.44;;;7.93;100.00
24746;BME280;12845;52.042;6.838;2023-03-20T05:10:03;-18241.44;;;7.93;100.00
24746;BME280;12845;52.042;6.838;2023-03-20T05:12:29;-18241.56;;;7.93;100.00
24746;BME280;12845;52.042;6.838;2023-03-20T05:14:55;-18240.75;;;7.90;100.00
24746;BME280;12845;52.042;6.838;2023-03-20T05:17:22;-18240.59;;;7.89;100.00
24746;BME280;12845;52.042;6.838;2023-03-20T05:19:49;-18238.69;;;7.82;100.00
24746;BME280;12845;52.042;6.838;2023-03-20T05:22:16;-18238.97;;;7.83;100.00
24746;BME280;12845;52.042;6.838;2023-03-20T05:24:41;-18238.13;;;7.80;100.00
24746;BME280;12845;52.042;6.838;2023-03-20T05:27:06;-18238.81;;;7.83;100.00
24746;BME280;12845;52.042;6.838;2023-03-20T05:29:32;-18237.03;;;7.76;100.00
24746;BME280;12845;52.042;6.838;2023-03-20T05:31:57;-18234.97;;;7.68;100.00
24746;BME280;12845;52.042;6.838;2023-03-20T05:34:22;-18233.16;;;7.62;100.00
24746;BME280;12845;52.042;6.838;2023-03-20T05:36:48;-18232.63;;;7.60;100.00
24746;BME280;12845;52.042;6.838;2023-03-20T05:39:13;-18232.22;;;7.58;100.00
24746;BME280;12845;52.042;6.838;2023-03-20T05:41:39;-18233.44;;;7.63;100.00
24746;BME280;12845;52.042;6.838;2023-03-20T05:44:04;-18231.94;;;7.57;100.00
24746;BME280;12845;52.042;6.838;2023-03-20T05:46:30;-18229.88;;;7.50;100.00
24746;BME280;12845;52.042;6.838;2023-03-20T05:48:55;-18229.88;;;7.50;100.00
24746;BME280;12845;52.042;6.838;2023-03-20T05:51:21;-18229.03;;;7.46;100.00
24746;BME280;12845;52.042;6.838;2023-03-20T05:53:46;-18228.91;;;7.46;100.00
24746;BME280;12845;52.042;6.838;2023-03-20T05:56:12;-18229.03;;;7.46;100.00
24746;BME280;12845;52.042;6.838;2023-03-20T05:58:37;-18227.94;;;7.42;100.00
24746;BME280;12845;52.042;6.838;2023-03-20T06:01:03;-18229.03;;;7.46;100.00
24746;BME280;12845;52.042;6.838;2023-03-20T06:03:28;-18229.72;;;7.49;100.00
24746;BME280;12845;52.042;6.838;2023-03-20T06:05:53;-18229.03;;;7.46;100.00
24746;BME280;12845;52.042;6.838;2023-03-20T06:08:19;-18228.75;;;7.45;100.00
24746;BME280;12845;52.042;6.838;2023-03-20T06:10:45;-18228.75;;;7.45;100.00
24746;BME280;12845;52.042;6.838;2023-03-20T06:13:10;-18227.38;;;7.40;100.00
24746;BME280;12845;52.042;6.838;2023-03-20T06:15:36;-18227.66;;;7.41;100.00
24746;BME280;12845;52.042;6.838;2023-03-20T06:18:01;-18227.78;;;7.42;100.00
24746;BME280;12845;52.042;6.838;2023-03-20T06:20:27;-18227.66;;;7.41;100.00
24746;BME280;12845;52.042;6.838;2023-03-20T06:22:52;-18226.28;;;7.36;100.00
24746;BME280;12845;52.042;6.838;2023-03-20T06:25:18;-18225.47;;;7.33;100.00
24746;BME280;12845;52.042;6.838;2023-03-20T06:27:45;-18227.13;;;7.39;100.00
24746;BME280;12845;52.042;6.838;2023-03-20T06:30:12;-18224.22;;;7.29;100.00
24746;BME280;12845;52.042;6.838;2023-03-20T06:32:38;-18225.19;;;7.32;100.00
24746;BME280;12845;52.042;6.838;2023-03-20T06:35:04;-18226.16;;;7.36;100.00
24746;BME280;12845;52.042;6.838;2023-03-20T06:37:30;-18225.19;;;7.32;100.00
24746;BME280;12845;52.042;6.838;2023-03-20T06:39:56;-18225.59;;;7.34;100.00
24746;BME280;12845;52.042;6.838;2023-03-20T06:42:21;-18226.00;;;7.35;100.00
24746;BME280;12845;52.042;6.838;2023-03-20T06:44:47;-18224.91;;;7.31;100.00
24746;BME280;12845;52.042;6.838;2023-03-20T06:47:12;-18226.00;;;7.35;100.00
24746;BME280;12845;52.042;6.838;2023-03-20T06:49:37;-18225.31;;;7.33;100.00
24746;BME280;12845;52.042;6.838;2023-03-20T06:52:03;-18224.91;;;7.31;100.00
24746;BME280;12845;52.042;6.838;2023-03-20T06:54:29;-18226.56;;;7.37;100.00
24746;BME280;12845;52.042;6.838;2023-03-20T06:56:54;-18225.59;;;7.34;100.00
24746;BME280;12845;52.042;6.838;2023-03-20T06:59:20;-18225.59;;;7.34;100.00
24746;BME280;12845;52.042;6.838;2023-03-20T07:01:45;-18225.31;;;7.33;100.00
24746;BME280;12845;52.042;6.838;2023-03-20T07:04:10;-18226.56;;;7.37;100.00
24746;BME280;12845;52.042;6.838;2023-03-20T07:06:36;-18227.38;;;7.40;100.00
24746;BME280;12845;52.042;6.838;2023-03-20T07:09:02;-18227.94;;;7.42;100.00
24746;BME280;12845;52.042;6.838;2023-03-20T07:11:28;-18228.50;;;7.44;100.00
24746;BME280;12845;52.042;6.838;2023-03-20T07:13:54;-18228.75;;;7.45;100.00
24746;BME280;12845;52.042;6.838;2023-03-20T07:16:20;-18228.75;;;7.45;100.00
24746;BME280;12845;52.042;6.838;2023-03-20T07:18:45;-18230.41;;;7.52;100.00
24746;BME280;12845;52.042;6.838;2023-03-20T07:21:17;-18231.09;;;7.54;100.00
24746;BME280;12845;52.042;6.838;2023-03-20T07:23:44;-18231.53;;;7.56;100.00
24746;BME280;12845;52.042;6.838;2023-03-20T07:26:09;-18232.22;;;7.58;100.00
24746;BME280;12845;52.042;6.838;2023-03-20T07:28:35;-18232.06;;;7.58;100.00
24746;BME280;12845;52.042;6.838;2023-03-20T07:31:00;-18234.81;;;7.68;100.00
24746;BME280;12845;52.042;6.838;2023-03-20T07:33:26;-18232.47;;;7.59;100.00
24746;BME280;12845;52.042;6.838;2023-03-20T07:35:53;-18235.25;;;7.69;100.00
24746;BME280;12845;52.042;6.838;2023-03-20T07:38:19;-18236.34;;;7.74;100.00
24746;BME280;12845;52.042;6.838;2023-03-20T07:40:45;-18237.03;;;7.76;100.00
24746;BME280;12845;52.042;6.838;2023-03-20T07:43:10;-18234.97;;;7.68;100.00
24746;BME280;12845;52.042;6.838;2023-03-20T07:45:35;-18237.03;;;7.76;100.00
24746;BME280;12845;52.042;6.838;2023-03-20T07:48:01;-18236.19;;;7.73;100.00
24746;BME280;12845;52.042;6.838;2023-03-20T07:50:26;-18237.59;;;7.78;100.00
24746;BME280;12845;52.042;6.838;2023-03-20T07:52:52;-18237.03;;;7.76;100.00
24746;BME280;12845;52.042;6.838;2023-03-20T07:55:17;-18236.47;;;7.74;100.00
24746;BME280;12845;52.042;6.838;2023-03-20T07:57:42;-18237.59;;;7.78;100.00
24746;BME280;12845;52.042;6.838;2023-03-20T08:00:09;-18237.59;;;7.78;100.00
24746;BME280;12845;52.042;6.838;2023-03-20T08:02:34;-18238.00;;;7.80;100.00
24746;BME280;12845;52.042;6.838;2023-03-20T08:05:00;-18239.22;;;7.84;100.00
24746;BME280;12845;52.042;6.838;2023-03-20T08:07:25;-18240.59;;;7.89;100.00
24746;BME280;12845;52.042;6.838;2023-03-20T08:09:51;-18241.72;;;7.94;100.00
24746;BME280;12845;52.042;6.838;2023-03-20T08:12:17;-18242.00;;;7.95;100.00
24746;BME280;12845;52.042;6.838;2023-03-20T08:14:42;-18242.13;;;7.95;100.00
24746;BME280;12845;52.042;6.838;2023-03-20T08:17:08;-18243.09;;;7.99;100.00
24746;BME280;12845;52.042;6.838;2023-03-20T08:19:33;-18244.19;;;8.03;100.00
24746;BME280;12845;52.042;6.838;2023-03-20T08:21:59;-18244.75;;;8.05;100.00
24746;BME280;12845;52.042;6.838;2023-03-20T08:24:25;-18246.94;;;8.13;100.00
24746;BME280;12845;52.042;6.838;2023-03-20T08:26:50;-18245.03;;;8.06;100.00
24746;BME280;12845;52.042;6.838;2023-03-20T08:29:16;-18245.16;;;8.06;100.00
24746;BME280;12845;52.042;6.838;2023-03-20T08:31:43;-18248.19;;;8.18;100.00
24746;BME280;12845;52.042;6.838;2023-03-20T08:34:09;-18248.59;;;8.19;100.00
24746;BME280;12845;52.042;6.838;2023-03-20T08:36:35;-18248.59;;;8.19;100.00
24746;BME280;12845;52.042;6.838;2023-03-20T08:39:00;-18249.28;;;8.22;100.00
24746;BME280;12845;52.042;6.838;2023-03-20T08:41:25;-18250.53;;;8.26;100.00
24746;BME280;12845;52.042;6.838;2023-03-20T08:43:51;-18250.78;;;8.27;100.00
24746;BME280;12845;52.042;6.838;2023-03-20T08:46:16;-18254.09;;;8.40;100.00
24746;BME280;12845;52.042;6.838;2023-03-20T08:48:41;-18253.41;;;8.37;100.00
24746;BME280;12845;52.042;6.838;2023-03-20T08:51:07;-18255.06;;;8.43;100.00
24746;BME280;12845;52.042;6.838;2023-03-20T08:53:33;-18254.66;;;8.42;100.00
24746;BME280;12845;52.042;6.838;2023-03-20T08:55:58;-18255.47;;;8.45;100.00
24746;BME280;12845;52.042;6.838;2023-03-20T08:58:24;-18258.25;;;8.55;100.00
24746;BME280;12845;52.042;6.838;2023-03-20T09:00:49;-18258.50;;;8.56;100.00
24746;BME280;12845;52.042;6.838;2023-03-20T09:03:17;-18258.09;;;8.54;100.00
24746;BME280;12845;52.042;6.838;2023-03-20T09:05:44;-18260.72;;;8.64;100.00
24746;BME280;12845;52.042;6.838;2023-03-20T09:08:10;-18260.84;;;8.65;100.00
24746;BME280;12845;52.042;6.838;2023-03-20T09:10:36;-18260.16;;;8.62;100.00
24746;BME280;12845;52.042;6.838;2023-03-20T09:13:01;-18260.56;;;8.64;100.00
24746;BME280;12845;52.042;6.838;2023-03-20T09:15:27;-18261.13;;;8.66;100.00
24746;BME280;12845;52.042;6.838;2023-03-20T09:17:52;-18258.09;;;8.54;100.00
24746;BME280;12845;52.042;6.838;2023-03-20T09:20:18;-18259.34;;;8.59;100.00
24746;BME280;12845;52.042;6.838;2023-03-20T09:22:43;-18258.25;;;8.55;100.00
24746;BME280;12845;52.042;6.838;2023-03-20T09:25:10;-18259.88;;;8.61;100.00
24746;BME280;12845;52.042;6.838;2023-03-20T09:27:36;-18262.09;;;8.69;100.00
24746;BME280;12845;52.042;6.838;2023-03-20T09:30:03;-18260.31;;;8.63;100.00
24746;BME280;12845;52.042;6.838;2023-03-20T09:32:28;-18260.44;;;8.63;100.00
24746;BME280;12845;52.042;6.838;2023-03-20T09:34:54;-18260.56;;;8.64;100.00
24746;BME280;12845;52.042;6.838;2023-03-20T09:37:19;-18261.28;;;8.66;100.00
24746;BME280;12845;52.042;6.838;2023-03-20T09:39:44;-18263.19;;;8.73;100.00
24746;BME280;12845;52.042;6.838;2023-03-20T09:42:26;-18265.41;;;8.81;100.00
24746;BME280;12845;52.042;6.838;2023-03-20T09:55:43;-18266.63;;;8.86;100.00
24746;BME280;12845;52.042;6.838;2023-03-20T09:58:14;-18267.59;;;8.90;100.00
24746;BME280;12845;52.042;6.838;2023-03-20T10:00:44;-18267.59;;;8.90;100.00
24746;BME280;12845;52.042;6.838;2023-03-20T10:03:31;-18268.69;;;8.94;100.00
24746;BME280;12845;52.042;6.838;2023-03-20T10:06:15;-18270.63;;;9.01;100.00
24746;BME280;12845;52.042;6.838;2023-03-20T10:08:41;-18269.66;;;8.97;100.00
24746;BME280;12845;52.042;6.838;2023-03-20T10:11:28;-18273.38;;;9.11;100.00
24746;BME280;12845;52.042;6.838;2023-03-20T10:14:21;-18274.34;;;9.15;100.00
24746;BME280;12845;52.042;6.838;2023-03-20T10:19:49;-18276.00;;;9.21;100.00
24746;BME280;12845;52.042;6.838;2023-03-20T10:24:53;-18276.13;;;9.21;100.00
24746;BME280;12845;52.042;6.838;2023-03-20T10:27:38;-18278.06;;;9.29;100.00
24746;BME280;12845;52.042;6.838;2023-03-20T10:41:11;-18284.94;;;9.54;100.00
24746;BME280;12845;52.042;6.838;2023-03-20T10:43:39;-18283.41;;;9.48;100.00
24746;BME280;12845;52.042;6.838;2023-03-20T10:46:18;-18282.03;;;9.43;100.00
24746;BME280;12845;52.042;6.838;2023-03-20T10:48:48;-18281.91;;;9.43;100.00
24746;BME280;12845;52.042;6.838;2023-03-20T10:51:17;-18279.00;;;9.32;100.00
24746;BME280;12845;52.042;6.838;2023-03-20T10:53:53;-18280.81;;;9.39;100.00
24746;BME280;12845;52.042;6.838;2023-03-20T10:56:43;-18280.94;;;9.39;100.00
24746;BME280;12845;52.042;6.838;2023-03-20T10:59:41;-18280.13;;;9.36;100.00
24746;BME280;12845;52.042;6.838;2023-03-20T11:02:12;-18280.66;;;9.38;100.00
24746;BME280;12845;52.042;6.838;2023-03-20T11:04:39;-18283.56;;;9.49;100.00
24746;BME280;12845;52.042;6.838;2023-03-20T11:07:13;-18282.19;;;9.44;100.00
24746;BME280;12845;52.042;6.838;2023-03-20T11:09:42;-18280.81;;;9.39;100.00
24746;BME280;12845;52.042;6.838;2023-03-20T11:12:15;-18279.16;;;9.33;100.00
24746;BME280;12845;52.042;6.838;2023-03-20T11:14:42;-18280.81;;;9.39;100.00
24746;BME280;12845;52.042;6.838;2023-03-20T11:17:09;-18281.06;;;9.40;100.00
24746;BME280;12845;52.042;6.838;2023-03-20T11:19:37;-18278.47;;;9.30;100.00
24746;BME280;12845;52.042;6.838;2023-03-20T11:22:23;-18275.56;;;9.19;100.00
24746;BME280;12845;52.042;6.838;2023-03-20T11:24:52;-18272.53;;;9.08;100.00
24746;BME280;12845;52.042;6.838;2023-03-20T11:27:29;-18271.44;;;9.04;100.00
24746;BME280;12845;52.042;6.838;2023-03-20T11:29:55;-18264.00;;;8.76;100.00
24746;BME280;12845;52.042;6.838;2023-03-20T11:34:53;-18263.47;;;8.74;100.00
24746;BME280;12845;52.042;6.838;2023-03-20T11:37:24;-18265.94;;;8.84;100.00
24746;BME280;12845;52.042;6.838;2023-03-20T11:40:01;-18264.72;;;8.79;100.00
24746;BME280;12845;52.042;6.838;2023-03-20T11:42:31;-18263.59;;;8.75;100.00
24746;BME280;12845;52.042;6.838;2023-03-20T11:45:15;-18263.19;;;8.73;100.00
24746;BME280;12845;52.042;6.838;2023-03-20T11:47:41;-18259.47;;;8.59;100.00
24746;BME280;12845;52.042;6.838;2023-03-20T11:50:25;-18259.88;;;8.61;100.00
24746;BME280;12845;52.042;6.838;2023-03-20T11:52:51;-18261.00;;;8.65;100.00
24746;BME280;12845;52.042;6.838;2023-03-20T11:55:27;-18262.22;;;8.70;100.00
24746;BME280;12845;52.042;6.838;2023-03-20T11:57:58;-18262.22;;;8.70;100.00
24746;BME280;12845;52.042;6.838;2023-03-20T12:00:27;-18261.81;;;8.68;100.00
24746;BME280;12845;52.042;6.838;2023-03-20T12:02:53;-18259.75;;;8.61;100.00
24746;BME280;12845;52.042;6.838;2023-03-20T12:05:34;-18259.63;;;8.60;100.00
24746;BME280;12845;52.042;6.838;2023-03-20T12:08:14;-18258.78;;;8.57;100.00
24746;BME280;12845;52.042;6.838;2023-03-20T12:10:43;-18260.44;;;8.63;100.00
24746;BME280;12845;52.042;6.838;2023-03-20T12:15:49;-18259.06;;;8.58;100.00
24746;BME280;12845;52.042;6.838;2023-03-20T12:18:37;-18263.19;;;8.73;100.00
24746;BME280;12845;52.042;6.838;2023-03-20T12:21:26;-18262.22;;;8.70;100.00
24746;BME280;12845;52.042;6.838;2023-03-20T12:24:06;-18265.25;;;8.81;100.00
24746;BME280;12845;52.042;6.838;2023-03-20T12:26:43;-18260.44;;;8.63;100.00
24746;BME280;12845;52.042;6.838;2023-03-20T12:29:27;-18263.19;;;8.73;100.00
24746;BME280;12845;52.042;6.838;2023-03-20T12:31:58;-18262.91;;;8.72;100.00
24746;BME280;12845;52.042;6.838;2023-03-20T12:36:56;-18264.16;;;8.77;100.00
24746;BME280;12845;52.042;6.838;2023-03-20T12:39:25;-18265.66;;;8.82;100.00
24746;BME280;12845;52.042;6.838;2023-03-20T12:42:05;-18268.00;;;8.91;100.00
24746;BME280;12845;52.042;6.838;2023-03-20T12:50:25;-18269.09;;;8.95;100.00
24746;BME280;12845;52.042;6.838;2023-03-20T13:03:51;-18270.75;;;9.01;100.00
24746;BME280;12845;52.042;6.838;2023-03-20T13:27:53;-18276.53;;;9.23;100.00
24746;BME280;12845;52.042;6.838;2023-03-20T13:38:18;-18272.00;;;9.06;100.00
24746;BME280;12845;52.042;6.838;2023-03-20T13:40:46;-18272.13;;;9.07;100.00
24746;BME280;12845;52.042;6.838;2023-03-20T13:43:25;-18270.47;;;9.00;100.00
24746;BME280;12845;52.042;6.838;2023-03-20T13:46:04;-18267.88;;;8.91;100.00
24746;BME280;12845;52.042;6.838;2023-03-20T13:48:36;-18269.25;;;8.96;100.00
24746;BME280;12845;52.042;6.838;2023-03-20T14:04:34;-18267.59;;;8.90;100.00
24746;BME280;12845;52.042;6.838;2023-03-20T14:07:00;-18267.31;;;8.89;100.00
24746;BME280;12845;52.042;6.838;2023-03-20T14:12:00;-18266.78;;;8.87;100.00
24746;BME280;12845;52.042;6.838;2023-03-20T14:14:31;-18265.81;;;8.83;100.00
24746;BME280;12845;52.042;6.838;2023-03-20T14:17:47;-18265.94;;;8.84;100.00
24746;BME280;12845;52.042;6.838;2023-03-20T14:19:48;-18270.34;;;9.00;100.00
24746;BME280;12845;52.042;6.838;2023-03-20T14:22:29;-18270.06;;;8.99;100.00
24746;BME280;12845;52.042;6.838;2023-03-20T14:25:03;-18267.88;;;8.91;100.00
24746;BME280;12845;52.042;6.838;2023-03-20T14:27:34;-18268.16;;;8.92;100.00
24746;BME280;12845;52.042;6.838;2023-03-20T14:35:35;-18267.31;;;8.89;100.00
24746;BME280;12845;52.042;6.838;2023-03-20T14:52:12;-18261.28;;;8.66;100.00
24746;BME280;12845;52.042;6.838;2023-03-20T14:54:51;-18259.75;;;8.61;100.00
24746;BME280;12845;52.042;6.838;2023-03-20T14:57:24;-18258.50;;;8.56;100.00
24746;BME280;12845;52.042;6.838;2023-03-20T14:59:51;-18258.66;;;8.56;100.00
24746;BME280;12845;52.042;6.838;2023-03-20T15:02:27;-18259.88;;;8.61;100.00
24746;BME280;12845;52.042;6.838;2023-03-20T15:04:53;-18259.19;;;8.58;100.00
24746;BME280;12845;52.042;6.838;2023-03-20T15:07:29;-18256.31;;;8.48;100.00
24746;BME280;12845;52.042;6.838;2023-03-20T15:09:59;-18256.31;;;8.48;100.00
24746;BME280;12845;52.042;6.838;2023-03-20T15:12:26;-18258.09;;;8.54;100.00
24746;BME280;12845;52.042;6.838;2023-03-20T15:15:02;-18253.41;;;8.37;100.00
24746;BME280;12845;52.042;6.838;2023-03-20T15:17:43;-18255.34;;;8.44;100.00
24746;BME280;12845;52.042;6.838;2023-03-20T15:23:00;-18255.75;;;8.46;100.00
24746;BME280;12845;52.042;6.838;2023-03-20T15:25:40;-18256.31;;;8.48;100.00
24746;BME280;12845;52.042;6.838;2023-03-20T15:28:21;-18255.75;;;8.46;100.00
24746;BME280;12845;52.042;6.838;2023-03-20T15:30:48;-18256.59;;;8.49;100.00
24746;BME280;12845;52.042;6.838;2023-03-20T15:33:25;-18258.66;;;8.56;100.00
24746;BME280;12845;52.042;6.838;2023-03-20T15:35:51;-18257.41;;;8.52;100.00
24746;BME280;12845;52.042;6.838;2023-03-20T15:38:17;-18255.63;;;8.45;100.00
24746;BME280;12845;52.042;6.838;2023-03-20T15:40:43;-18257.13;;;8.51;100.00
24746;BME280;12845;52.042;6.838;2023-03-20T15:43:20;-18257.13;;;8.51;100.00
24746;BME280;12845;52.042;6.838;2023-03-20T15:45:45;-18256.88;;;8.50;100.00
24746;BME280;12845;52.042;6.838;2023-03-20T15:48:19;-18257.56;;;8.52;100.00